sensor_id;sensor_type;location;lat;lon;timestamp;temperature;humidity
74923;HTU21D;64715;44.760;37.678;2023-03-01T00:00:23;3.67;81.22
74923;HTU21D;64715;44.760;37.678;2023-03-01T00:01:27;3.68;81.66
74923;HTU21D;64715;44.760;37.678;2023-03-01T00:02:29;3.67;81.44
74923;HTU21D;64715;44.760;37.678;2023-03-01T00:03:30;3.68;81.48
74923;HTU21D;64715;44.760;37.678;2023-03-01T00:04:31;3.67;81.55
74923;HTU21D;64715;44.760;37.678;2023-03-01T00:05:32;3.67;81.35
74923;HTU21D;64715;44.760;37.678;2023-03-01T00:06:33;3.68;81.43
74923;HTU21D;64715;44.760;37.678;2023-03-01T00:07:34;3.65;81.73
74923;HTU21D;64715;44.760;37.678;2023-03-01T00:08:35;3.64;81.07
74923;HTU21D;64715;44.760;37.678;2023-03-01T00:09:36;3.65;81.56
74923;HTU21D;64715;44.760;37.678;2023-03-01T00:10:38;3.67;81.34
74923;HTU21D;64715;44.760;37.678;2023-03-01T00:11:39;3.67;81.43
74923;HTU21D;64715;44.760;37.678;2023-03-01T00:12:40;3.67;81.45
74923;HTU21D;64715;44.760;37.678;2023-03-01T00:13:42;3.69;81.37
74923;HTU21D;64715;44.760;37.678;2023-03-01T00:14:43;3.68;81.31
74923;HTU21D;64715;44.760;37.678;2023-03-01T00:15:44;3.70;81.13
74923;HTU21D;64715;44.760;37.678;2023-03-01T00:16:46;3.68;81.27
74923;HTU21D;64715;44.760;37.678;2023-03-01T00:17:47;3.67;81.17
74923;HTU21D;64715;44.760;37.678;2023-03-01T00:18:48;3.67;81.13
74923;HTU21D;64715;44.760;37.678;2023-03-01T00:19:49;3.65;81.05
74923;HTU21D;64715;44.760;37.678;2023-03-01T00:20:52;3.63;81.11
74923;HTU21D;64715;44.760;37.678;2023-03-01T00:21:53;3.64;80.99
74923;HTU21D;64715;44.760;37.678;2023-03-01T00:22:54;3.62;81.36
74923;HTU21D;64715;44.760;37.678;2023-03-01T00:23:55;3.59;80.91
74923;HTU21D;64715;44.760;37.678;2023-03-01T00:24:57;3.60;80.84
74923;HTU21D;64715;44.760;37.678;2023-03-01T00:25:58;3.57;80.56
74923;HTU21D;64715;44.760;37.678;2023-03-01T00:26:58;3.57;80.86
74923;HTU21D;64715;44.760;37.678;2023-03-01T00:28:01;3.56;80.75
74923;HTU21D;64715;44.760;37.678;2023-03-01T00:29:02;3.55;80.60
74923;HTU21D;64715;44.760;37.678;2023-03-01T00:30:03;3.53;80.71
74923;HTU21D;64715;44.760;37.678;2023-03-01T00:31:17;3.52;80.67
74923;HTU21D;64715;44.760;37.678;2023-03-01T00:32:19;3.49;80.75
74923;HTU21D;64715;44.760;37.678;2023-03-01T00:33:20;3.48;80.59
74923;HTU21D;64715;44.760;37.678;2023-03-01T00:34:21;3.46;80.76
74923;HTU21D;64715;44.760;37.678;2023-03-01T00:35:22;3.45;80.35
74923;HTU21D;64715;44.760;37.678;2023-03-01T00:36:26;3.45;80.77
74923;HTU21D;64715;44.760;37.678;2023-03-01T00:37:27;3.42;80.79
74923;HTU21D;64715;44.760;37.678;2023-03-01T00:38:29;3.41;80.57
74923;HTU21D;64715;44.760;37.678;2023-03-01T00:39:29;3.39;80.98
74923;HTU21D;64715;44.760;37.678;2023-03-01T00:40:33;3.40;80.66
74923;HTU21D;64715;44.760;37.678;2023-03-01T00:41:35;3.36;80.75
74923;HTU21D;64715;44.760;37.678;2023-03-01T00:42:36;3.38;80.68
74923;HTU21D;64715;44.760;37.678;2023-03-01T00:43:38;3.36;80.80
74923;HTU21D;64715;44.760;37.678;2023-03-01T00:44:39;3.33;80.49
74923;HTU21D;64715;44.760;37.678;2023-03-01T00:45:40;3.33;80.64
74923;HTU21D;64715;44.760;37.678;2023-03-01T00:46:41;3.31;80.75
74923;HTU21D;64715;44.760;37.678;2023-03-01T00:47:43;3.30;80.81
74923;HTU21D;64715;44.760;37.678;2023-03-01T00:48:44;3.27;80.71
74923;HTU21D;64715;44.760;37.678;2023-03-01T00:49:46;3.29;80.78
74923;HTU21D;64715;44.760;37.678;2023-03-01T00:50:47;3.28;80.92
74923;HTU21D;64715;44.760;37.678;2023-03-01T00:51:47;3.27;80.68
74923;HTU21D;64715;44.760;37.678;2023-03-01T00:52:53;3.28;80.86
74923;HTU21D;64715;44.760;37.678;2023-03-01T00:53:57;3.25;80.84
74923;HTU21D;64715;44.760;37.678;2023-03-01T00:54:58;3.25;80.59
74923;HTU21D;64715;44.760;37.678;2023-03-01T00:55:59;3.24;80.84
74923;HTU21D;64715;44.760;37.678;2023-03-01T00:57:00;3.24;80.88
74923;HTU21D;64715;44.760;37.678;2023-03-01T00:58:01;3.21;80.81
74923;HTU21D;64715;44.760;37.678;2023-03-01T00:59:02;3.23;80.88
74923;HTU21D;64715;44.760;37.678;2023-03-01T01:00:05;3.18;80.77
74923;HTU21D;64715;44.760;37.678;2023-03-01T01:01:18;3.18;80.83
74923;HTU21D;64715;44.760;37.678;2023-03-01T01:02:21;3.18;80.92
74923;HTU21D;64715;44.760;37.678;2023-03-01T01:03:22;3.17;80.51
74923;HTU21D;64715;44.760;37.678;2023-03-01T01:04:25;3.16;80.70
74923;HTU21D;64715;44.760;37.678;2023-03-01T01:05:26;3.15;80.70
74923;HTU21D;64715;44.760;37.678;2023-03-01T01:06:33;3.15;80.80
74923;HTU21D;64715;44.760;37.678;2023-03-01T01:07:35;3.13;80.88
74923;HTU21D;64715;44.760;37.678;2023-03-01T01:08:36;3.12;80.56
74923;HTU21D;64715;44.760;37.678;2023-03-01T01:09:37;3.13;80.94
74923;HTU21D;64715;44.760;37.678;2023-03-01T01:10:38;3.12;80.95
74923;HTU21D;64715;44.760;37.678;2023-03-01T01:11:39;3.13;80.99
74923;HTU21D;64715;44.760;37.678;2023-03-01T01:12:40;3.11;80.76
74923;HTU21D;64715;44.760;37.678;2023-03-01T01:13:43;3.12;80.81
74923;HTU21D;64715;44.760;37.678;2023-03-01T01:14:44;3.10;80.81
74923;HTU21D;64715;44.760;37.678;2023-03-01T01:15:46;3.10;80.68
74923;HTU21D;64715;44.760;37.678;2023-03-01T01:16:47;3.09;80.82
74923;HTU21D;64715;44.760;37.678;2023-03-01T01:17:48;3.09;80.59
74923;HTU21D;64715;44.760;37.678;2023-03-01T01:18:50;3.06;80.36
74923;HTU21D;64715;44.760;37.678;2023-03-01T01:19:51;3.05;80.31
74923;HTU21D;64715;44.760;37.678;2023-03-01T01:20:52;3.05;80.14
74923;HTU21D;64715;44.760;37.678;2023-03-01T01:21:53;3.03;80.43
74923;HTU21D;64715;44.760;37.678;2023-03-01T01:22:54;3.03;80.49
74923;HTU21D;64715;44.760;37.678;2023-03-01T01:23:55;3.02;80.38
74923;HTU21D;64715;44.760;37.678;2023-03-01T01:24:56;3.01;80.61
74923;HTU21D;64715;44.760;37.678;2023-03-01T01:26:04;2.99;80.72
74923;HTU21D;64715;44.760;37.678;2023-03-01T01:27:06;3.00;80.46
74923;HTU21D;64715;44.760;37.678;2023-03-01T01:28:07;2.98;80.65
74923;HTU21D;64715;44.760;37.678;2023-03-01T01:29:09;2.99;80.73
74923;HTU21D;64715;44.760;37.678;2023-03-01T01:30:11;2.96;80.66
74923;HTU21D;64715;44.760;37.678;2023-03-01T01:31:12;2.96;80.46
74923;HTU21D;64715;44.760;37.678;2023-03-01T01:32:13;2.96;80.66
74923;HTU21D;64715;44.760;37.678;2023-03-01T01:33:16;2.94;80.71
74923;HTU21D;64715;44.760;37.678;2023-03-01T01:34:20;2.94;80.67
74923;HTU21D;64715;44.760;37.678;2023-03-01T01:35:21;2.93;80.53
74923;HTU21D;64715;44.760;37.678;2023-03-01T01:36:22;2.91;80.78
74923;HTU21D;64715;44.760;37.678;2023-03-01T01:37:23;2.91;80.88
74923;HTU21D;64715;44.760;37.678;2023-03-01T01:38:32;2.91;80.43
74923;HTU21D;64715;44.760;37.678;2023-03-01T01:39:35;2.90;80.24
74923;HTU21D;64715;44.760;37.678;2023-03-01T01:40:45;2.88;80.73
74923;HTU21D;64715;44.760;37.678;2023-03-01T01:41:47;2.87;80.81
74923;HTU21D;64715;44.760;37.678;2023-03-01T01:42:48;2.86;80.66
74923;HTU21D;64715;44.760;37.678;2023-03-01T01:44:22;2.87;80.78
74923;HTU21D;64715;44.760;37.678;2023-03-01T01:46:36;2.85;80.49
74923;HTU21D;64715;44.760;37.678;2023-03-01T01:47:38;2.84;80.65
74923;HTU21D;64715;44.760;37.678;2023-03-01T01:48:46;2.84;80.98
74923;HTU21D;64715;44.760;37.678;2023-03-01T01:49:52;2.83;80.89
74923;HTU21D;64715;44.760;37.678;2023-03-01T01:50:59;2.81;80.80
74923;HTU21D;64715;44.760;37.678;2023-03-01T01:52:11;2.81;80.77
74923;HTU21D;64715;44.760;37.678;2023-03-01T01:53:18;2.82;80.65
74923;HTU21D;64715;44.760;37.678;2023-03-01T01:54:27;2.80;80.78
74923;HTU21D;64715;44.760;37.678;2023-03-01T01:55:30;2.79;80.81
74923;HTU21D;64715;44.760;37.678;2023-03-01T01:56:31;2.80;80.88
74923;HTU21D;64715;44.760;37.678;2023-03-01T01:57:41;2.81;80.65
74923;HTU21D;64715;44.760;37.678;2023-03-01T01:58:44;2.80;80.83
74923;HTU21D;64715;44.760;37.678;2023-03-01T01:59:51;2.82;80.84
74923;HTU21D;64715;44.760;37.678;2023-03-01T02:00:54;2.81;80.86
74923;HTU21D;64715;44.760;37.678;2023-03-01T02:01:57;2.81;80.79
74923;HTU21D;64715;44.760;37.678;2023-03-01T02:03:03;2.82;80.85
74923;HTU21D;64715;44.760;37.678;2023-03-01T02:04:05;2.82;80.81
74923;HTU21D;64715;44.760;37.678;2023-03-01T02:05:20;2.79;80.89
74923;HTU21D;64715;44.760;37.678;2023-03-01T02:06:42;2.80;81.04
74923;HTU21D;64715;44.760;37.678;2023-03-01T02:07:46;2.79;80.58
74923;HTU21D;64715;44.760;37.678;2023-03-01T02:08:49;2.74;80.78
74923;HTU21D;64715;44.760;37.678;2023-03-01T02:09:52;2.78;80.58
74923;HTU21D;64715;44.760;37.678;2023-03-01T02:10:54;2.76;80.73
74923;HTU21D;64715;44.760;37.678;2023-03-01T02:11:58;2.75;80.83
74923;HTU21D;64715;44.760;37.678;2023-03-01T02:12:59;2.76;80.89
74923;HTU21D;64715;44.760;37.678;2023-03-01T02:14:02;2.74;80.53
74923;HTU21D;64715;44.760;37.678;2023-03-01T02:15:03;2.76;80.81
74923;HTU21D;64715;44.760;37.678;2023-03-01T02:16:09;2.74;80.62
74923;HTU21D;64715;44.760;37.678;2023-03-01T02:17:13;2.74;80.81
74923;HTU21D;64715;44.760;37.678;2023-03-01T02:18:16;2.72;80.64
74923;HTU21D;64715;44.760;37.678;2023-03-01T02:20:33;2.71;80.65
74923;HTU21D;64715;44.760;37.678;2023-03-01T02:22:00;2.72;80.99
74923;HTU21D;64715;44.760;37.678;2023-03-01T02:23:03;2.70;80.76
74923;HTU21D;64715;44.760;37.678;2023-03-01T02:25:35;2.70;80.69
74923;HTU21D;64715;44.760;37.678;2023-03-01T02:26:46;2.70;80.92
74923;HTU21D;64715;44.760;37.678;2023-03-01T02:29:16;2.68;80.78
74923;HTU21D;64715;44.760;37.678;2023-03-01T02:30:19;2.71;80.58
74923;HTU21D;64715;44.760;37.678;2023-03-01T02:31:21;2.68;80.80
74923;HTU21D;64715;44.760;37.678;2023-03-01T02:32:42;2.70;80.92
74923;HTU21D;64715;44.760;37.678;2023-03-01T02:33:43;2.68;80.76
74923;HTU21D;64715;44.760;37.678;2023-03-01T02:34:45;2.69;80.84
74923;HTU21D;64715;44.760;37.678;2023-03-01T02:35:47;2.71;80.68
74923;HTU21D;64715;44.760;37.678;2023-03-01T02:36:51;2.70;80.71
74923;HTU21D;64715;44.760;37.678;2023-03-01T02:37:53;2.71;80.89
74923;HTU21D;64715;44.760;37.678;2023-03-01T02:38:59;2.73;80.85
74923;HTU21D;64715;44.760;37.678;2023-03-01T02:40:05;2.74;80.63
74923;HTU21D;64715;44.760;37.678;2023-03-01T02:41:07;2.74;80.78
74923;HTU21D;64715;44.760;37.678;2023-03-01T02:42:15;2.74;80.61
74923;HTU21D;64715;44.760;37.678;2023-03-01T02:43:19;2.76;81.02
74923;HTU21D;64715;44.760;37.678;2023-03-01T02:44:22;2.76;80.93
74923;HTU21D;64715;44.760;37.678;2023-03-01T02:45:25;2.79;80.78
74923;HTU21D;64715;44.760;37.678;2023-03-01T02:46:27;2.80;80.71
74923;HTU21D;64715;44.760;37.678;2023-03-01T02:47:28;2.79;80.49
74923;HTU21D;64715;44.760;37.678;2023-03-01T02:48:52;2.79;80.49
74923;HTU21D;64715;44.760;37.678;2023-03-01T02:49:53;2.81;80.49
74923;HTU21D;64715;44.760;37.678;2023-03-01T02:51:07;2.80;80.46
74923;HTU21D;64715;44.760;37.678;2023-03-01T02:52:44;2.81;80.32
74923;HTU21D;64715;44.760;37.678;2023-03-01T02:55:08;2.76;80.14
74923;HTU21D;64715;44.760;37.678;2023-03-01T02:56:09;2.75;80.32
74923;HTU21D;64715;44.760;37.678;2023-03-01T02:57:14;2.74;80.61
74923;HTU21D;64715;44.760;37.678;2023-03-01T02:58:15;2.74;80.47
74923;HTU21D;64715;44.760;37.678;2023-03-01T02:59:18;2.73;80.15
74923;HTU21D;64715;44.760;37.678;2023-03-01T03:00:26;2.74;80.24
74923;HTU21D;64715;44.760;37.678;2023-03-01T03:01:29;2.72;80.35
74923;HTU21D;64715;44.760;37.678;2023-03-01T03:02:41;2.70;80.07
74923;HTU21D;64715;44.760;37.678;2023-03-01T03:03:48;2.70;80.18
74923;HTU21D;64715;44.760;37.678;2023-03-01T03:04:49;2.68;80.45
74923;HTU21D;64715;44.760;37.678;2023-03-01T03:05:50;2.69;80.27
74923;HTU21D;64715;44.760;37.678;2023-03-01T03:06:51;2.69;80.17
74923;HTU21D;64715;44.760;37.678;2023-03-01T03:07:53;2.68;80.48
74923;HTU21D;64715;44.760;37.678;2023-03-01T03:08:54;2.69;80.35
74923;HTU21D;64715;44.760;37.678;2023-03-01T03:09:55;2.69;80.03
74923;HTU21D;64715;44.760;37.678;2023-03-01T03:10:56;2.69;80.49
74923;HTU21D;64715;44.760;37.678;2023-03-01T03:11:57;2.67;80.22
74923;HTU21D;64715;44.760;37.678;2023-03-01T03:13:04;2.69;80.39
74923;HTU21D;64715;44.760;37.678;2023-03-01T03:14:05;2.69;80.30
74923;HTU21D;64715;44.760;37.678;2023-03-01T03:15:08;2.66;80.37
74923;HTU21D;64715;44.760;37.678;2023-03-01T03:16:09;2.70;80.37
74923;HTU21D;64715;44.760;37.678;2023-03-01T03:17:10;2.67;80.51
74923;HTU21D;64715;44.760;37.678;2023-03-01T03:18:14;2.68;80.52
74923;HTU21D;64715;44.760;37.678;2023-03-01T03:19:16;2.66;80.18
74923;HTU21D;64715;44.760;37.678;2023-03-01T03:20:21;2.67;80.39
74923;HTU21D;64715;44.760;37.678;2023-03-01T03:21:22;2.68;80.20
74923;HTU21D;64715;44.760;37.678;2023-03-01T03:22:23;2.65;80.44
74923;HTU21D;64715;44.760;37.678;2023-03-01T03:23:25;2.66;80.32
74923;HTU21D;64715;44.760;37.678;2023-03-01T03:24:26;2.67;80.24
74923;HTU21D;64715;44.760;37.678;2023-03-01T03:25:38;2.67;80.17
74923;HTU21D;64715;44.760;37.678;2023-03-01T03:26:39;2.67;80.08
74923;HTU21D;64715;44.760;37.678;2023-03-01T03:27:43;2.64;80.09
74923;HTU21D;64715;44.760;37.678;2023-03-01T03:28:44;2.65;79.93
74923;HTU21D;64715;44.760;37.678;2023-03-01T03:29:47;2.64;80.40
74923;HTU21D;64715;44.760;37.678;2023-03-01T03:30:48;2.64;80.31
74923;HTU21D;64715;44.760;37.678;2023-03-01T03:31:50;2.61;80.24
74923;HTU21D;64715;44.760;37.678;2023-03-01T03:32:51;2.62;80.31
74923;HTU21D;64715;44.760;37.678;2023-03-01T03:33:55;2.60;80.19
74923;HTU21D;64715;44.760;37.678;2023-03-01T03:34:57;2.60;80.43
74923;HTU21D;64715;44.760;37.678;2023-03-01T03:35:58;2.59;80.52
74923;HTU21D;64715;44.760;37.678;2023-03-01T03:36:59;2.59;80.15
74923;HTU21D;64715;44.760;37.678;2023-03-01T03:38:03;2.60;80.46
74923;HTU21D;64715;44.760;37.678;2023-03-01T03:39:06;2.59;80.47
74923;HTU21D;64715;44.760;37.678;2023-03-01T03:40:08;2.59;80.53
74923;HTU21D;64715;44.760;37.678;2023-03-01T03:41:16;2.59;80.36
74923;HTU21D;64715;44.760;37.678;2023-03-01T03:42:17;2.58;80.52
74923;HTU21D;64715;44.760;37.678;2023-03-01T03:43:21;2.58;80.52
74923;HTU21D;64715;44.760;37.678;2023-03-01T03:44:22;2.58;80.26
74923;HTU21D;64715;44.760;37.678;2023-03-01T03:45:24;2.58;80.33
74923;HTU21D;64715;44.760;37.678;2023-03-01T03:46:25;2.58;80.11
74923;HTU21D;64715;44.760;37.678;2023-03-01T03:47:26;2.58;79.97
74923;HTU21D;64715;44.760;37.678;2023-03-01T03:48:27;2.58;80.19
74923;HTU21D;64715;44.760;37.678;2023-03-01T03:49:28;2.55;80.28
74923;HTU21D;64715;44.760;37.678;2023-03-01T03:50:29;2.58;80.09
74923;HTU21D;64715;44.760;37.678;2023-03-01T03:51:30;2.56;80.10
74923;HTU21D;64715;44.760;37.678;2023-03-01T03:52:31;2.55;80.45
74923;HTU21D;64715;44.760;37.678;2023-03-01T03:53:33;2.56;80.52
74923;HTU21D;64715;44.760;37.678;2023-03-01T03:54:34;2.57;80.57
74923;HTU21D;64715;44.760;37.678;2023-03-01T03:55:36;2.59;80.87
74923;HTU21D;64715;44.760;37.678;2023-03-01T03:56:39;2.58;80.70
74923;HTU21D;64715;44.760;37.678;2023-03-01T03:57:41;2.58;80.75
74923;HTU21D;64715;44.760;37.678;2023-03-01T03:58:42;2.59;81.02
74923;HTU21D;64715;44.760;37.678;2023-03-01T03:59:43;2.59;80.74
74923;HTU21D;64715;44.760;37.678;2023-03-01T04:00:45;2.61;80.69
74923;HTU21D;64715;44.760;37.678;2023-03-01T04:01:46;2.60;80.90
74923;HTU21D;64715;44.760;37.678;2023-03-01T04:02:48;2.62;80.99
74923;HTU21D;64715;44.760;37.678;2023-03-01T04:03:49;2.62;80.87
74923;HTU21D;64715;44.760;37.678;2023-03-01T04:04:54;2.64;80.46
74923;HTU21D;64715;44.760;37.678;2023-03-01T04:06:00;2.65;80.76
74923;HTU21D;64715;44.760;37.678;2023-03-01T04:07:02;2.62;80.90
74923;HTU21D;64715;44.760;37.678;2023-03-01T04:08:03;2.62;81.02
74923;HTU21D;64715;44.760;37.678;2023-03-01T04:09:07;2.62;80.77
74923;HTU21D;64715;44.760;37.678;2023-03-01T04:10:14;2.62;80.91
74923;HTU21D;64715;44.760;37.678;2023-03-01T04:11:15;2.62;80.88
74923;HTU21D;64715;44.760;37.678;2023-03-01T04:12:28;2.62;80.70
74923;HTU21D;64715;44.760;37.678;2023-03-01T04:13:30;2.62;80.95
74923;HTU21D;64715;44.760;37.678;2023-03-01T04:14:30;2.62;80.83
74923;HTU21D;64715;44.760;37.678;2023-03-01T04:15:32;2.61;80.82
74923;HTU21D;64715;44.760;37.678;2023-03-01T04:16:33;2.64;80.94
74923;HTU21D;64715;44.760;37.678;2023-03-01T04:17:34;2.64;80.85
74923;HTU21D;64715;44.760;37.678;2023-03-01T04:18:35;2.62;80.99
74923;HTU21D;64715;44.760;37.678;2023-03-01T04:19:36;2.61;80.82
74923;HTU21D;64715;44.760;37.678;2023-03-01T04:20:37;2.65;80.97
74923;HTU21D;64715;44.760;37.678;2023-03-01T04:21:38;2.66;80.69
74923;HTU21D;64715;44.760;37.678;2023-03-01T04:22:41;2.64;80.95
74923;HTU21D;64715;44.760;37.678;2023-03-01T04:23:42;2.64;80.78
74923;HTU21D;64715;44.760;37.678;2023-03-01T04:24:44;2.62;80.88
74923;HTU21D;64715;44.760;37.678;2023-03-01T04:25:54;2.62;80.98
74923;HTU21D;64715;44.760;37.678;2023-03-01T04:26:56;2.65;80.91
74923;HTU21D;64715;44.760;37.678;2023-03-01T04:27:56;2.62;80.72
74923;HTU21D;64715;44.760;37.678;2023-03-01T04:28:57;2.64;80.77
74923;HTU21D;64715;44.760;37.678;2023-03-01T04:29:58;2.64;81.11
74923;HTU21D;64715;44.760;37.678;2023-03-01T04:31:03;2.62;81.15
74923;HTU21D;64715;44.760;37.678;2023-03-01T04:32:13;2.61;81.06
74923;HTU21D;64715;44.760;37.678;2023-03-01T04:33:17;2.64;81.07
74923;HTU21D;64715;44.760;37.678;2023-03-01T04:34:19;2.62;81.05
74923;HTU21D;64715;44.760;37.678;2023-03-01T04:35:21;2.64;81.39
74923;HTU21D;64715;44.760;37.678;2023-03-01T04:36:26;2.61;81.19
74923;HTU21D;64715;44.760;37.678;2023-03-01T04:37:27;2.64;80.98
74923;HTU21D;64715;44.760;37.678;2023-03-01T04:38:30;2.62;81.14
74923;HTU21D;64715;44.760;37.678;2023-03-01T04:39:31;2.64;80.96
74923;HTU21D;64715;44.760;37.678;2023-03-01T04:40:33;2.64;81.13
74923;HTU21D;64715;44.760;37.678;2023-03-01T04:41:34;2.64;81.01
74923;HTU21D;64715;44.760;37.678;2023-03-01T04:42:35;2.64;80.69
74923;HTU21D;64715;44.760;37.678;2023-03-01T04:43:37;2.64;81.16
74923;HTU21D;64715;44.760;37.678;2023-03-01T04:44:38;2.65;81.19
74923;HTU21D;64715;44.760;37.678;2023-03-01T04:45:39;2.65;80.91
74923;HTU21D;64715;44.760;37.678;2023-03-01T04:46:40;2.65;80.94
74923;HTU21D;64715;44.760;37.678;2023-03-01T04:47:43;2.67;80.92
74923;HTU21D;64715;44.760;37.678;2023-03-01T04:48:47;2.67;80.83
74923;HTU21D;64715;44.760;37.678;2023-03-01T04:49:48;2.67;80.94
74923;HTU21D;64715;44.760;37.678;2023-03-01T04:50:49;2.68;80.79
74923;HTU21D;64715;44.760;37.678;2023-03-01T04:51:50;2.69;80.94
74923;HTU21D;64715;44.760;37.678;2023-03-01T04:52:52;2.70;81.39
74923;HTU21D;64715;44.760;37.678;2023-03-01T04:53:53;2.71;81.01
74923;HTU21D;64715;44.760;37.678;2023-03-01T04:54:54;2.71;80.99
74923;HTU21D;64715;44.760;37.678;2023-03-01T04:55:56;2.72;81.35
74923;HTU21D;64715;44.760;37.678;2023-03-01T04:56:57;2.75;81.02
74923;HTU21D;64715;44.760;37.678;2023-03-01T04:57:58;2.75;81.20
74923;HTU21D;64715;44.760;37.678;2023-03-01T04:59:00;2.76;80.91
74923;HTU21D;64715;44.760;37.678;2023-03-01T05:00:01;2.78;81.08
74923;HTU21D;64715;44.760;37.678;2023-03-01T05:01:20;2.76;80.92
74923;HTU21D;64715;44.760;37.678;2023-03-01T05:02:22;2.78;81.14
74923;HTU21D;64715;44.760;37.678;2023-03-01T05:03:23;2.79;81.00
74923;HTU21D;64715;44.760;37.678;2023-03-01T05:04:24;2.81;80.91
74923;HTU21D;64715;44.760;37.678;2023-03-01T05:05:34;2.81;81.07
74923;HTU21D;64715;44.760;37.678;2023-03-01T05:06:36;2.85;80.91
74923;HTU21D;64715;44.760;37.678;2023-03-01T05:07:37;2.84;80.98
74923;HTU21D;64715;44.760;37.678;2023-03-01T05:08:39;2.85;80.85
74923;HTU21D;64715;44.760;37.678;2023-03-01T05:09:40;2.86;81.10
74923;HTU21D;64715;44.760;37.678;2023-03-01T05:10:41;2.87;80.99
74923;HTU21D;64715;44.760;37.678;2023-03-01T05:11:43;2.88;80.65
74923;HTU21D;64715;44.760;37.678;2023-03-01T05:12:44;2.89;81.02
74923;HTU21D;64715;44.760;37.678;2023-03-01T05:13:45;2.89;80.88
74923;HTU21D;64715;44.760;37.678;2023-03-01T05:14:46;2.91;80.70
74923;HTU21D;64715;44.760;37.678;2023-03-01T05:16:00;2.95;81.06
74923;HTU21D;64715;44.760;37.678;2023-03-01T05:17:03;2.94;80.96
74923;HTU21D;64715;44.760;37.678;2023-03-01T05:18:04;2.94;81.01
74923;HTU21D;64715;44.760;37.678;2023-03-01T05:19:11;2.96;80.82
74923;HTU21D;64715;44.760;37.678;2023-03-01T05:20:17;2.96;80.76
74923;HTU21D;64715;44.760;37.678;2023-03-01T05:21:18;2.95;80.77
74923;HTU21D;64715;44.760;37.678;2023-03-01T05:22:19;2.97;81.01
74923;HTU21D;64715;44.760;37.678;2023-03-01T05:23:20;2.99;80.99
74923;HTU21D;64715;44.760;37.678;2023-03-01T05:24:21;2.98;81.15
74923;HTU21D;64715;44.760;37.678;2023-03-01T05:25:22;3.01;81.06
74923;HTU21D;64715;44.760;37.678;2023-03-01T05:26:23;3.00;81.05
74923;HTU21D;64715;44.760;37.678;2023-03-01T05:27:29;3.03;80.62
74923;HTU21D;64715;44.760;37.678;2023-03-01T05:28:30;3.03;81.07
74923;HTU21D;64715;44.760;37.678;2023-03-01T05:29:31;3.04;81.11
74923;HTU21D;64715;44.760;37.678;2023-03-01T05:30:35;3.06;80.93
74923;HTU21D;64715;44.760;37.678;2023-03-01T05:31:36;3.10;80.89
74923;HTU21D;64715;44.760;37.678;2023-03-01T05:32:49;3.10;81.09
74923;HTU21D;64715;44.760;37.678;2023-03-01T05:33:56;3.11;81.07
74923;HTU21D;64715;44.760;37.678;2023-03-01T05:34:57;3.11;81.04
74923;HTU21D;64715;44.760;37.678;2023-03-01T05:35:59;3.15;80.87
74923;HTU21D;64715;44.760;37.678;2023-03-01T05:37:01;3.16;80.77
74923;HTU21D;64715;44.760;37.678;2023-03-01T05:38:02;3.15;81.00
74923;HTU21D;64715;44.760;37.678;2023-03-01T05:39:03;3.17;80.67
74923;HTU21D;64715;44.760;37.678;2023-03-01T05:40:05;3.18;80.98
74923;HTU21D;64715;44.760;37.678;2023-03-01T05:41:14;3.20;80.71
74923;HTU21D;64715;44.760;37.678;2023-03-01T05:42:15;3.23;80.62
74923;HTU21D;64715;44.760;37.678;2023-03-01T05:43:17;3.23;80.56
74923;HTU21D;64715;44.760;37.678;2023-03-01T05:44:18;3.25;80.34
74923;HTU21D;64715;44.760;37.678;2023-03-01T05:45:20;3.26;80.12
74923;HTU21D;64715;44.760;37.678;2023-03-01T05:46:21;3.26;80.86
74923;HTU21D;64715;44.760;37.678;2023-03-01T05:47:25;3.28;80.58
74923;HTU21D;64715;44.760;37.678;2023-03-01T05:48:25;3.31;80.57
74923;HTU21D;64715;44.760;37.678;2023-03-01T05:49:26;3.33;80.36
74923;HTU21D;64715;44.760;37.678;2023-03-01T05:50:29;3.33;80.36
74923;HTU21D;64715;44.760;37.678;2023-03-01T05:51:30;3.38;80.49
74923;HTU21D;64715;44.760;37.678;2023-03-01T05:52:32;3.39;80.46
74923;HTU21D;64715;44.760;37.678;2023-03-01T05:53:32;3.42;80.44
74923;HTU21D;64715;44.760;37.678;2023-03-01T05:54:33;3.46;80.36
74923;HTU21D;64715;44.760;37.678;2023-03-01T05:55:35;3.48;80.33
74923;HTU21D;64715;44.760;37.678;2023-03-01T05:56:37;3.52;80.36
74923;HTU21D;64715;44.760;37.678;2023-03-01T05:57:38;3.55;80.14
74923;HTU21D;64715;44.760;37.678;2023-03-01T05:58:39;3.60;80.58
74923;HTU21D;64715;44.760;37.678;2023-03-01T05:59:40;3.60;80.17
74923;HTU21D;64715;44.760;37.678;2023-03-01T06:00:42;3.63;79.91
74923;HTU21D;64715;44.760;37.678;2023-03-01T06:01:44;3.65;80.09
74923;HTU21D;64715;44.760;37.678;2023-03-01T06:02:45;3.68;80.01
74923;HTU21D;64715;44.760;37.678;2023-03-01T06:03:46;3.70;80.07
74923;HTU21D;64715;44.760;37.678;2023-03-01T06:04:47;3.71;79.98
74923;HTU21D;64715;44.760;37.678;2023-03-01T06:05:48;3.74;80.01
74923;HTU21D;64715;44.760;37.678;2023-03-01T06:06:49;3.77;79.89
74923;HTU21D;64715;44.760;37.678;2023-03-01T06:07:50;3.79;79.74
74923;HTU21D;64715;44.760;37.678;2023-03-01T06:08:52;3.80;79.69
74923;HTU21D;64715;44.760;37.678;2023-03-01T06:09:53;3.80;79.49
74923;HTU21D;64715;44.760;37.678;2023-03-01T06:10:54;3.80;79.59
74923;HTU21D;64715;44.760;37.678;2023-03-01T06:11:56;3.83;79.61
74923;HTU21D;64715;44.760;37.678;2023-03-01T06:12:58;3.86;79.42
74923;HTU21D;64715;44.760;37.678;2023-03-01T06:13:59;3.82;79.35
74923;HTU21D;64715;44.760;37.678;2023-03-01T06:15:00;3.84;79.38
74923;HTU21D;64715;44.760;37.678;2023-03-01T06:16:04;3.84;79.36
74923;HTU21D;64715;44.760;37.678;2023-03-01T06:17:05;3.86;79.11
74923;HTU21D;64715;44.760;37.678;2023-03-01T06:18:06;3.87;79.23
74923;HTU21D;64715;44.760;37.678;2023-03-01T06:19:07;3.88;79.11
74923;HTU21D;64715;44.760;37.678;2023-03-01T06:20:17;3.87;79.21
74923;HTU21D;64715;44.760;37.678;2023-03-01T06:21:18;3.88;79.01
74923;HTU21D;64715;44.760;37.678;2023-03-01T06:22:19;3.90;79.02
74923;HTU21D;64715;44.760;37.678;2023-03-01T06:23:20;3.90;79.01
74923;HTU21D;64715;44.760;37.678;2023-03-01T06:24:21;3.91;78.88
74923;HTU21D;64715;44.760;37.678;2023-03-01T06:25:24;3.93;78.97
74923;HTU21D;64715;44.760;37.678;2023-03-01T06:26:25;3.94;78.88
74923;HTU21D;64715;44.760;37.678;2023-03-01T06:27:26;3.93;78.47
74923;HTU21D;64715;44.760;37.678;2023-03-01T06:28:27;3.91;78.53
74923;HTU21D;64715;44.760;37.678;2023-03-01T06:29:28;3.90;78.60
74923;HTU21D;64715;44.760;37.678;2023-03-01T06:30:29;3.92;78.53
74923;HTU21D;64715;44.760;37.678;2023-03-01T06:31:30;3.94;78.67
74923;HTU21D;64715;44.760;37.678;2023-03-01T06:32:31;3.97;78.70
74923;HTU21D;64715;44.760;37.678;2023-03-01T06:33:32;4.00;78.32
74923;HTU21D;64715;44.760;37.678;2023-03-01T06:34:35;4.01;78.30
74923;HTU21D;64715;44.760;37.678;2023-03-01T06:35:36;4.04;78.47
74923;HTU21D;64715;44.760;37.678;2023-03-01T06:36:37;4.02;78.52
74923;HTU21D;64715;44.760;37.678;2023-03-01T06:37:38;4.07;78.45